Time;durP1;ratioP1;P1;durP2;ratioP2;P2;SDS_P1;SDS_P2;PMS_P1;PMS_P2;Temp;Humidity;BMP_temperature;BMP_pressure;BME280_temperature;BME280_humidity;BME280_pressure;Samples;Min_cycle;Max_cycle;Signal;HPM_P1;HPM_P2
2022/06/11 00:02:02;;;;;;;18.58;3.10;;;13.60;99.90;;;;;;4936907;28;20023;-81
2022/06/11 00:04:34;;;;;;;10.95;1.83;;;13.50;99.90;;;;;;4938541;28;20028;-82
2022/06/11 00:07:08;;;;;;;10.57;2.20;;;13.40;99.90;;;;;;4939110;29;20046;-82
2022/06/11 00:09:34;;;;;;;11.88;2.50;;;13.30;99.90;;;;;;4939271;28;20432;-82
2022/06/11 00:12:00;;;;;;;16.20;2.67;;;13.30;99.90;;;;;;4938211;28;20038;-81
2022/06/11 00:14:29;;;;;;;15.88;2.33;;;13.30;99.90;;;;;;4938459;28;20023;-81
2022/06/11 00:16:56;;;;;;;14.93;2.25;;;13.30;99.90;;;;;;4940062;29;20011;-82
2022/06/11 00:19:22;;;;;;;18.73;3.22;;;13.20;99.90;;;;;;4938999;28;20066;-81
2022/06/11 00:21:49;;;;;;;13.70;2.03;;;13.20;99.90;;;;;;4941104;28;20027;-81
2022/06/11 00:24:17;;;;;;;12.98;2.55;;;13.10;99.90;;;;;;4938379;29;20718;-82
2022/06/11 00:26:45;;;;;;;10.77;2.17;;;13.10;99.90;;;;;;4938563;29;20118;-82
2022/06/11 00:29:13;;;;;;;15.05;2.67;;;13.10;99.90;;;;;;4938374;28;20023;-82
2022/06/11 00:31:39;;;;;;;7.15;2.25;;;13.10;99.90;;;;;;4938387;28;20110;-82
2022/06/11 00:34:04;;;;;;;15.25;3.10;;;13.10;99.90;;;;;;4938664;28;20543;-81
2022/06/11 00:36:30;;;;;;;10.32;2.13;;;13.10;99.90;;;;;;4938069;29;20476;-82
2022/06/11 00:38:57;;;;;;;14.30;2.33;;;13.10;99.90;;;;;;4938173;28;20110;-82
2022/06/11 00:41:26;;;;;;;9.20;3.03;;;13.00;99.90;;;;;;4935407;28;20034;-82
2022/06/11 00:43:53;;;;;;;12.60;2.35;;;13.10;99.90;;;;;;4938277;29;20030;-82
2022/06/11 00:46:56;;;;;;;10.07;2.50;;;13.10;99.90;;;;;;4994201;23;20046;-81
2022/06/11 00:49:49;;;;;;;14.27;3.58;;;13.10;99.90;;;;;;5011747;28;20028;-81
2022/06/11 00:52:22;;;;;;;14.75;3.58;;;13.10;99.90;;;;;;4999214;28;20044;-82
2022/06/11 00:54:56;;;;;;;14.25;2.47;;;13.20;99.90;;;;;;5012412;28;20021;-82
2022/06/11 00:57:23;;;;;;;12.93;2.85;;;13.30;99.90;;;;;;5012289;28;20057;-81
2022/06/11 00:59:56;;;;;;;7.85;2.58;;;13.20;99.90;;;;;;5011911;28;20029;-80
2022/06/11 01:02:21;;;;;;;19.13;2.95;;;13.30;99.90;;;;;;5012755;28;20528;-81
2022/06/11 01:04:56;;;;;;;10.23;3.10;;;13.20;99.90;;;;;;5012193;28;20018;-81
2022/06/11 01:07:31;;;;;;;11.32;2.40;;;13.30;99.90;;;;;;4994572;28;20458;-81
2022/06/11 01:10:09;;;;;;;14.10;2.80;;;13.30;99.90;;;;;;5011972;28;20018;-81
2022/06/11 01:13:01;;;;;;;7.05;2.10;;;13.30;99.90;;;;;;5011635;28;20028;-81
2022/06/11 01:15:36;;;;;;;14.20;2.20;;;13.20;99.90;;;;;;5011156;28;20065;-81
2022/06/11 01:18:13;;;;;;;7.85;1.98;;;13.10;99.90;;;;;;5007214;28;20080;-81
2022/06/11 01:20:42;;;;;;;15.55;3.10;;;13.10;99.90;;;;;;5012317;28;20022;-82
2022/06/11 01:23:20;;;;;;;8.88;2.42;;;13.20;99.90;;;;;;4999243;28;20026;-83
2022/06/11 01:26:15;;;;;;;11.30;2.28;;;13.10;99.90;;;;;;5011685;28;20034;-80
2022/06/11 01:28:53;;;;;;;9.20;2.53;;;13.10;99.90;;;;;;5000702;28;20077;-82
2022/06/11 01:31:27;;;;;;;18.90;2.42;;;12.90;99.90;;;;;;4998613;28;20037;-82
2022/06/11 01:34:13;;;;;;;13.88;2.83;;;12.90;99.90;;;;;;5011570;28;20010;-81
2022/06/11 01:36:43;;;;;;;7.95;2.08;;;12.80;99.90;;;;;;5011330;28;20038;-81
2022/06/11 01:39:28;;;;;;;8.52;1.85;;;12.70;99.90;;;;;;5011832;28;20041;-81
2022/06/11 01:42:12;;;;;;;10.52;2.20;;;12.60;99.90;;;;;;5011346;28;20504;-81
2022/06/11 01:44:41;;;;;;;13.67;2.37;;;12.60;99.90;;;;;;5038236;23;20105;-83
2022/06/11 01:47:08;;;;;;;7.72;1.98;;;12.50;99.90;;;;;;4987637;28;20046;-86
2022/06/11 01:49:37;;;;;;;13.30;2.22;;;12.40;99.90;;;;;;4992881;28;20021;-85
2022/06/11 01:52:25;;;;;;;14.95;2.40;;;12.30;99.90;;;;;;4992079;28;20030;-85
2022/06/11 01:55:22;;;;;;;7.70;1.50;;;12.20;99.90;;;;;;4995569;28;20068;-85
2022/06/11 01:58:13;;;;;;;15.18;2.20;;;12.10;99.90;;;;;;4993172;28;20415;-86
2022/06/11 02:00:45;;;;;;;9.48;2.13;;;12.00;99.90;;;;;;5007065;28;20025;-85
2022/06/11 02:03:29;;;;;;;10.25;2.65;;;12.00;99.90;;;;;;5005478;28;20084;-85
2022/06/11 02:06:16;;;;;;;9.75;2.65;;;11.90;99.90;;;;;;5005229;28;20034;-86
2022/06/11 02:09:03;;;;;;;8.52;2.05;;;11.80;99.90;;;;;;5006042;28;20030;-86
2022/06/11 02:11:43;;;;;;;10.45;1.77;;;11.70;99.90;;;;;;5006150;28;20097;-86
2022/06/11 02:14:36;;;;;;;8.80;2.60;;;11.60;99.90;;;;;;5005386;28;20045;-86
2022/06/11 02:17:18;;;;;;;2.65;1.55;;;11.60;99.90;;;;;;4989530;28;20041;-86
2022/06/11 02:19:56;;;;;;;3.67;1.45;;;11.50;99.90;;;;;;4994085;28;20026;-86
2022/06/11 02:22:30;;;;;;;11.50;2.67;;;11.30;99.90;;;;;;5006201;28;20037;-85
2022/06/11 02:25:08;;;;;;;8.93;1.92;;;11.20;99.90;;;;;;4987091;28;20044;-85
2022/06/11 02:27:36;;;;;;;2.78;1.48;;;11.20;99.90;;;;;;5011209;28;20026;-86
2022/06/11 02:30:05;;;;;;;10.10;2.63;;;11.10;99.90;;;;;;4993352;28;20030;-86
2022/06/11 02:32:32;;;;;;;5.97;1.80;;;10.90;99.90;;;;;;5011174;28;20562;-86
2022/06/11 02:35:01;;;;;;;7.22;1.95;;;10.90;99.90;;;;;;5011543;28;20016;-87
2022/06/11 02:37:34;;;;;;;8.25;1.65;;;10.80;99.90;;;;;;5011218;28;20029;-86
2022/06/11 02:40:08;;;;;;;4.53;1.60;;;10.70;99.90;;;;;;4993409;28;20395;-86
2022/06/11 02:42:34;;;;;;;6.22;2.15;;;10.60;99.90;;;;;;4993147;28;20022;-86
2022/06/11 02:44:59;;;;;;;5.25;2.00;;;10.60;99.90;;;;;;5027286;23;20428;-81
2022/06/11 02:47:26;;;;;;;4.88;1.77;;;10.50;99.90;;;;;;4992347;28;20092;-81
2022/06/11 02:49:52;;;;;;;9.30;2.00;;;10.50;99.90;;;;;;4991370;28;20018;-81
2022/06/11 02:52:21;;;;;;;11.25;2.00;;;10.40;99.90;;;;;;4991924;28;20092;-81
2022/06/11 02:54:49;;;;;;;4.88;2.10;;;10.40;99.90;;;;;;4991443;28;20105;-81
2022/06/11 02:57:18;;;;;;;7.88;1.83;;;10.30;99.90;;;;;;4990958;28;20427;-81
2022/06/11 02:59:44;;;;;;;7.07;1.60;;;10.30;99.90;;;;;;4990104;28;20375;-80
2022/06/11 03:02:11;;;;;;;8.85;2.05;;;10.30;99.90;;;;;;4984502;28;20105;-81
2022/06/11 03:04:38;;;;;;;5.82;1.90;;;10.20;99.90;;;;;;4991029;28;20018;-81
2022/06/11 03:07:04;;;;;;;8.82;1.90;;;10.20;99.90;;;;;;4991002;28;20392;-82
2022/06/11 03:09:33;;;;;;;7.03;1.85;;;10.10;99.90;;;;;;4990102;28;20030;-82
2022/06/11 03:12:00;;;;;;;12.85;1.80;;;10.10;99.90;;;;;;4989574;28;20084;-81
2022/06/11 03:14:26;;;;;;;5.88;1.52;;;10.00;99.90;;;;;;4990995;28;20037;-81
2022/06/11 03:16:52;;;;;;;5.38;1.88;;;10.10;99.90;;;;;;4992181;28;20027;-81
2022/06/11 03:19:20;;;;;;;7.43;1.60;;;10.00;99.90;;;;;;4991601;28;20019;-81
2022/06/11 03:21:48;;;;;;;7.50;1.80;;;10.00;99.90;;;;;;4990880;28;20097;-81
2022/06/11 03:24:14;;;;;;;4.38;1.90;;;10.00;99.90;;;;;;4990978;28;20018;-80
2022/06/11 03:26:40;;;;;;;9.77;2.03;;;10.00;99.90;;;;;;4990670;28;20041;-81
2022/06/11 03:29:06;;;;;;;7.07;1.90;;;9.90;99.90;;;;;;4990783;28;20448;-81
2022/06/11 03:31:32;;;;;;;6.30;1.77;;;9.90;99.90;;;;;;4990625;28;20041;-81
2022/06/11 03:33:58;;;;;;;6.50;1.58;;;9.80;99.90;;;;;;4991315;28;20105;-81
2022/06/11 03:36:24;;;;;;;7.35;2.50;;;9.90;99.90;;;;;;4991014;28;20499;-81
2022/06/11 03:38:50;;;;;;;8.73;2.22;;;9.90;99.90;;;;;;4994949;28;20121;-81
2022/06/11 03:41:17;;;;;;;6.25;1.77;;;9.80;99.90;;;;;;4993826;28;20120;-81
2022/06/11 03:43:43;;;;;;;9.93;2.25;;;9.80;99.90;;;;;;4994542;28;20106;-81
2022/06/11 03:46:09;;;;;;;7.28;2.15;;;9.70;99.90;;;;;;5027944;23;20480;-86
2022/06/11 03:48:37;;;;;;;6.32;2.60;;;9.70;99.90;;;;;;5014566;28;20041;-87
2022/06/11 03:51:04;;;;;;;5.90;2.20;;;9.70;99.90;;;;;;5015359;28;20620;-87
2022/06/11 03:53:30;;;;;;;5.18;1.88;;;9.70;99.90;;;;;;5012572;28;20506;-87
2022/06/11 03:55:56;;;;;;;9.65;2.10;;;9.60;99.90;;;;;;5014801;28;20075;-87
2022/06/11 03:58:23;;;;;;;9.68;1.75;;;9.60;99.90;;;;;;5018486;28;20093;-87
2022/06/11 04:03:34;;;;;;;6.53;1.92;;;9.60;99.90;;;;;;5014736;28;20068;-87
2022/06/11 04:06:00;;;;;;;10.70;2.15;;;9.70;99.90;;;;;;5012173;28;20022;-86
2022/06/11 04:08:26;;;;;;;9.48;2.78;;;9.70;99.90;;;;;;5014347;28;20030;-87
2022/06/11 04:10:54;;;;;;;8.02;2.70;;;9.70;99.90;;;;;;5014491;28;20100;-87
2022/06/11 04:13:22;;;;;;;8.38;2.42;;;9.70;99.90;;;;;;5014911;28;20023;-87
2022/06/11 04:15:49;;;;;;;6.85;2.45;;;9.60;99.90;;;;;;5007855;28;20020;-87
2022/06/11 04:18:24;;;;;;;3.88;1.92;;;9.60;99.90;;;;;;5014607;28;20022;-87
2022/06/11 04:20:49;;;;;;;6.60;2.00;;;9.60;99.90;;;;;;5014416;28;20109;-86
2022/06/11 04:23:15;;;;;;;9.18;3.92;;;9.70;99.90;;;;;;5011703;28;20106;-86
2022/06/11 04:25:41;;;;;;;12.13;1.92;;;9.70;99.90;;;;;;5011708;28;20026;-86
2022/06/11 04:28:07;;;;;;;9.32;2.08;;;9.80;99.90;;;;;;5014494;28;20022;-87
2022/06/11 04:30:33;;;;;;;8.13;1.58;;;9.90;99.90;;;;;;5014147;28;20026;-86
2022/06/11 04:32:58;;;;;;;11.10;2.05;;;9.90;99.90;;;;;;5021042;28;20379;-86
2022/06/11 04:35:24;;;;;;;5.82;1.70;;;9.90;99.90;;;;;;5014046;28;20034;-87
2022/06/11 04:37:50;;;;;;;4.53;1.45;;;9.90;99.90;;;;;;5014213;28;20006;-87
2022/06/11 04:40:17;;;;;;;5.13;2.47;;;10.00;99.90;;;;;;5014300;28;20495;-87
2022/06/11 04:42:43;;;;;;;6.97;1.90;;;10.00;99.90;;;;;;5014090;28;20025;-87
2022/06/11 04:45:11;;;;;;;8.32;2.15;;;10.10;99.90;;;;;;5029737;23;20054;-82
2022/06/11 04:47:36;;;;;;;11.57;2.03;;;10.20;99.90;;;;;;4998452;28;20053;-81
2022/06/11 04:50:05;;;;;;;6.85;2.13;;;10.20;99.90;;;;;;4994313;28;20033;-82
2022/06/11 04:52:31;;;;;;;4.80;2.25;;;10.30;99.90;;;;;;4991857;28;20026;-82
2022/06/11 04:54:56;;;;;;;5.65;2.15;;;10.30;99.90;;;;;;4993955;28;20019;-82
2022/06/11 04:57:23;;;;;;;10.80;2.25;;;10.40;99.90;;;;;;4994466;28;20014;-81
2022/06/11 04:59:49;;;;;;;8.65;1.92;;;10.40;99.90;;;;;;4994326;28;20022;-81
2022/06/11 05:02:16;;;;;;;8.90;2.10;;;10.50;99.90;;;;;;4994248;28;20031;-82
2022/06/11 05:04:42;;;;;;;9.30;1.98;;;10.60;99.90;;;;;;4991581;28;20018;-81
2022/06/11 05:07:08;;;;;;;10.73;2.47;;;10.70;99.90;;;;;;4993866;28;20044;-81
2022/06/11 05:09:35;;;;;;;9.65;2.00;;;10.90;99.90;;;;;;4993874;28;20581;-82
2022/06/11 05:12:02;;;;;;;6.70;2.00;;;11.00;99.90;;;;;;4994129;28;20631;-82
2022/06/11 05:14:29;;;;;;;13.45;2.60;;;11.10;99.90;;;;;;4991797;28;20022;-82
2022/06/11 05:16:56;;;;;;;10.07;2.15;;;11.20;99.90;;;;;;4999632;28;20026;-82
2022/06/11 05:19:22;;;;;;;11.07;2.58;;;11.30;99.90;;;;;;4994119;28;20013;-82
2022/06/11 05:21:50;;;;;;;6.65;1.70;;;11.40;99.90;;;;;;4994169;28;20041;-82
2022/06/11 05:24:16;;;;;;;10.23;2.83;;;11.50;99.90;;;;;;4993629;28;20030;-82
2022/06/11 05:26:58;;;;;;;10.75;2.08;;;11.60;99.90;;;;;;4993283;28;20125;-82
2022/06/11 05:29:28;;;;;;;12.50;2.78;;;11.70;99.90;;;;;;4999992;28;20018;-82
2022/06/11 05:31:55;;;;;;;6.13;1.90;;;11.90;99.90;;;;;;4991135;28;20049;-81
2022/06/11 05:34:21;;;;;;;9.52;2.10;;;12.00;99.90;;;;;;4991419;28;20023;-81
2022/06/11 05:36:47;;;;;;;13.38;2.45;;;12.10;99.90;;;;;;4993245;28;20057;-81
2022/06/11 05:39:13;;;;;;;8.00;2.42;;;12.30;99.90;;;;;;4993249;28;20089;-82
2022/06/11 05:41:40;;;;;;;14.18;2.10;;;12.40;99.90;;;;;;4993054;28;20488;-82
2022/06/11 05:44:06;;;;;;;11.07;2.10;;;12.60;99.90;;;;;;4992862;28;20562;-83
2022/06/11 05:46:33;;;;;;;11.05;1.90;;;12.70;99.90;;;;;;5005872;23;20047;-86
2022/06/11 05:49:04;;;;;;;8.07;2.17;;;12.80;99.90;;;;;;4972753;28;20029;-87
2022/06/11 05:51:39;;;;;;;19.48;2.58;;;12.90;99.90;;;;;;4973163;28;20030;-86
2022/06/11 05:54:12;;;;;;;8.90;1.73;;;13.00;99.90;;;;;;4967421;28;20033;-88
2022/06/11 05:56:38;;;;;;;11.95;2.95;;;13.10;99.90;;;;;;4956046;28;20476;-88
2022/06/11 05:59:19;;;;;;;11.63;2.08;;;13.30;99.90;;;;;;4972724;28;20022;-87
2022/06/11 06:01:46;;;;;;;10.32;2.05;;;13.40;99.90;;;;;;4954711;28;20754;-87
2022/06/11 06:04:11;;;;;;;16.55;3.05;;;13.60;99.90;;;;;;4956493;28;20031;-86
2022/06/11 06:06:37;;;;;;;17.65;3.13;;;13.70;99.90;;;;;;4972638;28;20031;-88
2022/06/11 06:09:04;;;;;;;16.38;2.95;;;13.80;99.90;;;;;;4972968;28;20026;-89
2022/06/11 06:11:29;;;;;;;14.27;2.90;;;14.00;99.90;;;;;;4973265;28;20023;-87
2022/06/11 06:13:56;;;;;;;18.27;2.92;;;14.10;99.90;;;;;;4972748;28;20022;-87
2022/06/11 06:16:26;;;;;;;11.23;3.00;;;14.40;99.90;;;;;;4972198;28;20027;-87
2022/06/11 06:18:55;;;;;;;12.25;1.77;;;14.70;99.90;;;;;;4972401;28;20018;-87
2022/06/11 06:21:24;;;;;;;11.27;2.15;;;15.00;99.90;;;;;;4972843;28;20033;-88
2022/06/11 06:23:49;;;;;;;7.45;2.25;;;15.50;99.90;;;;;;4971993;28;20034;-88
2022/06/11 06:26:16;;;;;;;12.80;2.25;;;16.30;99.90;;;;;;4972140;28;20045;-87
2022/06/11 06:28:41;;;;;;;11.07;1.85;;;17.00;99.90;;;;;;4978312;28;20022;-89
2022/06/11 06:31:09;;;;;;;13.00;2.42;;;17.30;99.90;;;;;;4952693;28;20029;-88
2022/06/11 06:33:35;;;;;;;13.15;2.05;;;17.10;99.90;;;;;;4969933;28;20023;-87
2022/06/11 06:36:03;;;;;;;11.25;1.67;;;16.70;99.90;;;;;;4972208;28;20074;-88
2022/06/11 06:38:29;;;;;;;11.65;1.50;;;16.50;99.90;;;;;;4972642;28;20098;-89
2022/06/11 06:40:54;;;;;;;10.65;1.75;;;16.50;99.90;;;;;;4972311;28;20109;-88
2022/06/11 06:43:21;;;;;;;4.88;1.20;;;16.50;99.90;;;;;;4972480;28;20023;-88
2022/06/11 06:45:47;;;;;;;6.97;1.30;;;16.60;99.90;;;;;;5000550;23;20056;-80
2022/06/11 06:48:13;;;;;;;9.27;1.40;;;16.80;99.90;;;;;;4992262;28;20092;-81
2022/06/11 06:50:39;;;;;;;10.95;2.13;;;16.90;99.90;;;;;;4991661;28;20472;-81
2022/06/11 06:53:05;;;;;;;5.65;1.25;;;16.90;99.90;;;;;;4991284;28;20026;-81
2022/06/11 06:55:31;;;;;;;7.55;1.55;;;17.10;99.90;;;;;;4991451;28;20062;-81
2022/06/11 06:57:57;;;;;;;5.32;1.08;;;17.00;99.90;;;;;;4991757;28;20030;-80
2022/06/11 07:00:23;;;;;;;10.43;1.50;;;17.00;99.90;;;;;;4991125;28;20037;-81
2022/06/11 07:02:48;;;;;;;9.68;1.42;;;17.00;99.90;;;;;;4991151;28;20058;-80
2022/06/11 07:05:16;;;;;;;6.47;1.33;;;17.10;99.90;;;;;;4991068;28;20487;-79
2022/06/11 07:07:42;;;;;;;7.40;1.33;;;17.00;99.90;;;;;;4984732;28;20038;-81
2022/06/11 07:10:09;;;;;;;11.18;2.35;;;16.70;99.90;;;;;;4989622;28;20076;-80
2022/06/11 07:12:35;;;;;;;6.50;1.02;;;16.60;99.90;;;;;;4990508;28;20027;-81
2022/06/11 07:15:02;;;;;;;8.23;0.80;;;16.70;99.90;;;;;;4991065;28;20029;-80
2022/06/11 07:17:34;;;;;;;7.50;1.35;;;16.70;99.90;;;;;;4996915;28;20489;-79
2022/06/11 07:20:06;;;;;;;;;;;16.90;99.90;;;;;;4991800;28;20105;-80
2022/06/11 07:22:38;;;;;;;3.83;1.70;;;17.10;99.90;;;;;;4991181;28;20049;-81
2022/06/11 07:25:08;;;;;;;9.40;1.92;;;17.30;99.90;;;;;;4983697;28;20050;-80
2022/06/11 07:27:39;;;;;;;5.50;1.30;;;17.30;99.90;;;;;;4987137;28;20035;-82
2022/06/11 07:30:26;;;;;;;8.88;1.88;;;17.30;99.90;;;;;;4989183;28;20031;-81
2022/06/11 07:33:10;;;;;;;8.95;1.65;;;17.50;99.90;;;;;;4989324;28;20030;-80
2022/06/11 07:35:37;;;;;;;6.78;1.60;;;17.90;99.90;;;;;;4990733;28;20023;-80
2022/06/11 07:38:05;;;;;;;9.07;1.58;;;18.30;99.90;;;;;;4990606;28;20026;-81
2022/06/11 07:40:31;;;;;;;6.63;1.23;;;18.40;99.90;;;;;;4990842;28;20019;-81
2022/06/11 07:42:57;;;;;;;7.60;1.65;;;18.30;99.90;;;;;;4989986;28;20033;-80
2022/06/11 07:45:22;;;;;;;8.70;1.75;;;18.20;99.90;;;;;;5021580;23;20054;-83
2022/06/11 07:47:54;;;;;;;8.23;1.10;;;18.40;99.90;;;;;;5009162;28;20045;-82
2022/06/11 07:50:25;;;;;;;9.93;1.25;;;18.70;99.90;;;;;;5007085;28;20014;-82
2022/06/11 07:52:51;;;;;;;9.35;1.23;;;18.70;99.90;;;;;;5005499;28;20137;-83
2022/06/11 07:55:17;;;;;;;13.65;1.38;;;18.50;99.90;;;;;;5008108;28;20113;-82
2022/06/11 07:57:43;;;;;;;7.72;1.08;;;18.10;99.90;;;;;;4995146;28;20489;-83
2022/06/11 08:00:13;;;;;;;11.27;1.45;;;18.00;99.90;;;;;;5008319;28;20159;-84
2022/06/11 08:02:39;;;;;;;10.00;2.65;;;17.90;99.90;;;;;;5008556;28;20029;-83
2022/06/11 08:05:06;;;;;;;4.32;1.00;;;17.80;99.90;;;;;;4993722;28;20030;-83
2022/06/11 08:07:32;;;;;;;9.98;1.58;;;17.80;99.90;;;;;;5007575;28;20072;-83
2022/06/11 08:09:58;;;;;;;10.73;1.63;;;17.70;99.90;;;;;;5009080;28;20018;-82
2022/06/11 08:12:27;;;;;;;9.45;1.35;;;17.70;99.90;;;;;;5008542;28;20026;-83
2022/06/11 08:14:56;;;;;;;9.27;1.42;;;17.80;99.90;;;;;;5008131;28;20037;-82
2022/06/11 08:17:24;;;;;;;5.57;1.25;;;17.70;99.90;;;;;;5003551;28;20029;-84
2022/06/11 08:19:50;;;;;;;10.77;1.30;;;17.80;99.90;;;;;;5008885;28;20475;-83
2022/06/11 08:22:16;;;;;;;6.20;1.02;;;18.00;99.90;;;;;;5009712;28;20029;-83
2022/06/11 08:24:42;;;;;;;8.90;1.83;;;18.20;99.90;;;;;;5012449;28;20025;-81
2022/06/11 08:27:07;;;;;;;7.55;0.93;;;18.20;99.90;;;;;;5011908;28;20036;-82
2022/06/11 08:29:33;;;;;;;10.20;1.55;;;18.10;99.90;;;;;;5012130;28;20122;-82
2022/06/11 08:31:59;;;;;;;11.38;1.50;;;18.20;99.90;;;;;;5011253;28;20483;-82
2022/06/11 08:34:25;;;;;;;9.73;1.38;;;18.50;99.90;;;;;;5011360;28;20467;-82
2022/06/11 08:36:50;;;;;;;10.25;1.58;;;18.80;99.90;;;;;;5011621;28;20026;-82
2022/06/11 08:39:16;;;;;;;14.40;1.60;;;19.20;99.90;;;;;;5011867;28;20018;-81
2022/06/11 08:41:43;;;;;;;10.65;1.95;;;19.90;99.90;;;;;;5011957;28;20030;-82
2022/06/11 08:44:13;;;;;;;14.88;4.72;;;20.80;99.90;;;;;;5011821;28;20018;-82
2022/06/11 08:46:43;;;;;;;11.27;1.60;;;21.40;91.70;;;;;;5031794;23;20487;-83
2022/06/11 08:49:16;;;;;;;13.95;1.50;;;22.20;80.70;;;;;;5012490;28;20105;-83
2022/06/11 08:51:55;;;;;;;6.50;1.20;;;23.10;78.10;;;;;;5012968;28;20486;-83
2022/06/11 08:54:26;;;;;;;8.10;2.05;;;23.30;76.10;;;;;;5013259;28;20137;-81
2022/06/11 08:57:25;;;;;;;5.57;1.25;;;23.60;72.90;;;;;;5004029;28;20037;-82
2022/06/11 09:00:06;;;;;;;10.40;1.80;;;23.30;73.30;;;;;;5008488;28;20045;-81
2022/06/11 09:02:56;;;;;;;10.63;1.27;;;23.40;72.10;;;;;;5012674;28;20509;-80
2022/06/11 09:05:36;;;;;;;8.82;1.02;;;23.40;70.50;;;;;;5012619;28;20124;-81
2022/06/11 09:08:39;;;;;;;15.03;1.63;;;24.20;69.10;;;;;;5012232;28;20034;-81
2022/06/11 09:11:24;;;;;;;9.25;1.70;;;23.60;68.50;;;;;;5012567;28;20101;-80
2022/06/11 09:14:11;;;;;;;4.28;0.77;;;23.20;69.30;;;;;;5012347;28;20030;-81
2022/06/11 09:17:13;;;;;;;11.13;2.10;;;23.20;68.50;;;;;;5012043;28;20029;-80
2022/06/11 09:20:10;;;;;;;4.53;1.00;;;22.80;70.00;;;;;;5006913;28;20035;-80
2022/06/11 09:23:10;;;;;;;12.77;1.95;;;23.00;68.60;;;;;;5009897;28;20026;-81
2022/06/11 09:25:54;;;;;;;8.05;1.67;;;23.30;71.10;;;;;;5012137;28;20014;-83
2022/06/11 09:29:07;;;;;;;7.75;1.17;;;23.40;70.40;;;;;;5012499;28;20060;-84
2022/06/11 09:31:51;;;;;;;5.00;1.20;;;23.70;69.00;;;;;;4999540;28;20034;-79
2022/06/11 09:34:51;;;;;;;12.55;1.50;;;23.10;67.90;;;;;;5006775;28;20014;-80
2022/06/11 09:37:40;;;;;;;5.25;1.85;;;23.70;67.80;;;;;;5011451;28;20026;-80
2022/06/11 09:40:27;;;;;;;11.80;1.30;;;24.20;65.60;;;;;;5012338;28;20507;-81
2022/06/11 09:43:02;;;;;;;10.73;1.90;;;24.60;66.10;;;;;;5012344;28;20014;-79
2022/06/11 09:45:35;;;;;;;6.80;1.10;;;25.20;63.30;;;;;;5034906;23;20046;-87
2022/06/11 09:48:08;;;;;;;12.60;1.48;;;25.80;62.60;;;;;;5014794;28;20029;-87
2022/06/11 09:50:50;;;;;;;10.65;1.00;;;26.10;59.80;;;;;;5014719;28;20123;-86
2022/06/11 09:53:25;;;;;;;12.40;1.23;;;26.00;60.00;;;;;;5026590;28;20017;-87
2022/06/11 09:56:11;;;;;;;11.05;1.73;;;26.10;61.50;;;;;;5039522;28;20601;-86
2022/06/11 09:58:44;;;;;;;8.52;1.35;;;26.40;62.10;;;;;;5026631;28;20052;-87
2022/06/11 10:01:12;;;;;;;;;;;26.10;59.60;;;;;;5015204;28;20018;-84
2022/06/11 10:03:56;;;;;;;6.85;1.23;;;26.00;59.50;;;;;;5032536;28;19905;-85
2022/06/11 10:06:26;;;;;;;8.18;1.48;;;26.00;60.10;;;;;;5032484;28;20030;-86
2022/06/11 10:08:58;;;;;;;8.70;1.08;;;26.20;58.60;;;;;;5032749;28;20017;-85
2022/06/11 10:11:34;;;;;;;;;;;26.10;60.50;;;;;;5026733;28;20071;-86
2022/06/11 10:16:52;;;;;;;6.82;1.25;;;27.20;57.60;;;;;;5024985;28;20021;-85
2022/06/11 10:19:28;;;;;;;9.57;1.33;;;27.50;56.20;;;;;;5014521;28;20034;-84
2022/06/11 10:22:20;;;;;;;8.35;1.27;;;27.10;56.40;;;;;;5014545;28;20254;-85
2022/06/11 10:25:23;;;;;;;9.25;1.33;;;26.90;54.60;;;;;;5023227;28;20033;-87
2022/06/11 10:28:04;;;;;;;9.48;1.73;;;27.90;54.10;;;;;;5014460;28;20072;-86
2022/06/11 10:30:48;;;;;;;9.07;1.55;;;28.50;53.30;;;;;;5014409;28;20109;-82
2022/06/11 10:33:33;;;;;;;8.68;1.25;;;28.90;54.10;;;;;;5031350;28;20083;-84
2022/06/11 10:36:37;;;;;;;6.85;1.20;;;29.00;52.10;;;;;;5031253;28;20040;-82
2022/06/11 10:39:17;;;;;;;7.20;1.05;;;28.70;49.90;;;;;;4996971;28;20491;-81
2022/06/11 10:42:00;;;;;;;7.80;1.63;;;29.50;52.20;;;;;;5028938;28;20431;-81
2022/06/11 10:44:38;;;;;;;9.90;1.63;;;28.60;50.80;;;;;;5031273;28;20696;-83
2022/06/11 10:47:18;;;;;;;5.43;0.98;;;28.20;51.40;;;;;;5030101;23;20049;-87
2022/06/11 10:49:46;;;;;;;6.68;1.15;;;28.10;52.40;;;;;;5011822;28;20033;-88
2022/06/11 10:52:35;;;;;;;3.90;1.17;;;28.00;54.50;;;;;;5005199;28;20113;-89
2022/06/11 10:55:01;;;;;;;7.70;1.15;;;28.20;54.90;;;;;;5004375;28;20046;-86
2022/06/11 10:57:29;;;;;;;10.32;1.23;;;27.80;53.90;;;;;;5007686;28;20029;-90
2022/06/11 11:00:12;;;;;;;5.70;1.20;;;27.60;54.00;;;;;;5001192;28;20018;-89
2022/06/11 11:02:38;;;;;;;7.13;0.77;;;28.20;54.00;;;;;;5010287;28;20753;-87
2022/06/11 11:05:06;;;;;;;5.38;0.98;;;28.10;52.70;;;;;;5011876;28;20105;-90
2022/06/11 11:07:52;;;;;;;11.40;1.77;;;29.10;53.90;;;;;;5004297;28;20040;-87
2022/06/11 11:10:21;;;;;;;7.00;1.70;;;29.20;49.20;;;;;;5011612;28;20018;-84
2022/06/11 11:12:51;;;;;;;12.20;1.65;;;28.90;50.40;;;;;;5009854;28;20030;-87
2022/06/11 11:15:19;;;;;;;6.68;1.40;;;28.20;50.40;;;;;;5009464;28;20026;-88
2022/06/11 11:17:49;;;;;;;6.65;1.67;;;27.90;54.00;;;;;;5011109;28;20097;-88
2022/06/11 11:20:38;;;;;;;10.35;1.48;;;28.00;52.80;;;;;;5010621;28;20022;-86
2022/06/11 11:23:13;;;;;;;8.52;1.33;;;27.80;52.10;;;;;;5009755;28;20475;-85
2022/06/11 11:25:56;;;;;;;10.18;1.90;;;27.60;52.60;;;;;;5010464;28;20424;-88
2022/06/11 11:28:27;;;;;;;8.13;1.80;;;28.00;54.10;;;;;;5010482;28;20585;-85
2022/06/11 11:31:15;;;;;;;10.70;1.60;;;28.10;52.10;;;;;;5009435;28;20026;-83
2022/06/11 11:34:10;;;;;;;6.05;1.40;;;28.40;51.10;;;;;;5010272;28;20045;-81
2022/06/11 11:36:36;;;;;;;7.75;1.50;;;29.60;49.70;;;;;;5010307;28;20026;-82
2022/06/11 11:39:13;;;;;;;8.50;1.10;;;29.80;49.60;;;;;;5008812;28;20034;-81
2022/06/11 11:42:06;;;;;;;7.43;1.85;;;29.50;49.40;;;;;;5009027;28;20387;-83
2022/06/11 11:44:41;;;;;;;7.55;1.08;;;29.40;49.60;;;;;;5008481;28;20030;-81
2022/06/11 11:47:35;;;;;;;9.02;1.60;;;29.60;48.70;;;;;;5027655;23;20114;-85
2022/06/11 11:50:27;;;;;;;9.35;1.25;;;29.50;50.00;;;;;;4985687;28;20105;-85
2022/06/11 11:53:01;;;;;;;10.88;1.27;;;30.10;47.80;;;;;;4993216;28;20034;-88
2022/06/11 11:55:40;;;;;;;8.63;1.65;;;30.40;47.80;;;;;;5006339;28;20033;-89
2022/06/11 11:58:17;;;;;;;5.35;0.70;;;31.10;47.50;;;;;;4991105;28;20055;-89
2022/06/11 12:01:08;;;;;;;13.43;1.30;;;31.30;47.00;;;;;;4991827;28;20033;-85
2022/06/11 12:03:42;;;;;;;11.20;1.10;;;32.20;45.10;;;;;;4984382;28;20036;-85
2022/06/11 12:06:12;;;;;;;10.70;1.83;;;32.20;45.50;;;;;;4992900;28;20030;-86
2022/06/11 12:08:53;;;;;;;8.35;1.38;;;31.90;45.50;;;;;;4986503;28;20030;-85
2022/06/11 12:11:28;;;;;;;4.90;1.27;;;31.90;46.50;;;;;;4993039;28;20125;-85
2022/06/11 12:14:17;;;;;;;7.72;1.50;;;31.70;45.00;;;;;;4985658;28;20483;-88
2022/06/11 12:16:50;;;;;;;5.53;0.98;;;31.50;46.70;;;;;;4996099;28;20030;-85
2022/06/11 12:19:19;;;;;;;7.38;1.42;;;32.40;44.60;;;;;;4987371;28;20023;-89
2022/06/11 12:21:50;;;;;;;12.55;1.63;;;32.00;47.00;;;;;;4991404;28;20031;-85
2022/06/11 12:24:24;;;;;;;8.00;0.90;;;31.50;44.60;;;;;;4992955;28;20030;-90
2022/06/11 12:26:54;;;;;;;5.00;1.17;;;31.30;47.30;;;;;;4979417;28;20053;-86
2022/06/11 12:29:39;;;;;;;7.55;1.00;;;32.30;46.70;;;;;;4991436;28;20116;-84
2022/06/11 12:32:26;;;;;;;7.78;1.38;;;31.50;46.10;;;;;;4988998;28;20111;-88
2022/06/11 12:34:52;;;;;;;9.88;1.65;;;32.80;44.60;;;;;;4976748;28;20031;-91
2022/06/11 12:37:47;;;;;;;10.93;1.63;;;32.90;43.00;;;;;;4985091;28;20030;-86
2022/06/11 12:40:16;;;;;;;4.35;0.90;;;32.30;43.20;;;;;;4999238;28;20500;-82
2022/06/11 12:43:09;;;;;;;7.63;1.42;;;32.70;43.90;;;;;;4987397;28;20027;-84
2022/06/11 12:45:47;;;;;;;5.47;1.63;;;33.00;44.90;;;;;;5026433;23;21188;-92
2022/06/11 12:48:39;;;;;;;10.63;1.83;;;32.90;44.20;;;;;;5053291;28;20375;-91
2022/06/11 12:51:15;;;;;;;5.13;0.88;;;32.50;44.50;;;;;;5062354;28;20029;-92
2022/06/11 12:54:14;;;;;;;8.07;1.55;;;31.20;44.40;;;;;;5052996;28;20156;-86
2022/06/11 12:57:05;;;;;;;4.93;0.93;;;31.30;45.70;;;;;;5048845;28;20418;-80
2022/06/11 12:59:54;;;;;;;5.28;1.35;;;31.80;46.00;;;;;;5046295;28;20025;-81
2022/06/11 13:02:38;;;;;;;5.10;1.10;;;32.30;46.80;;;;;;5041665;28;20025;-85
2022/06/11 13:05:07;;;;;;;6.07;1.23;;;31.60;44.80;;;;;;5029726;28;20562;-84
2022/06/11 13:07:56;;;;;;;5.80;1.27;;;31.20;45.20;;;;;;5046891;28;20038;-79
2022/06/11 13:10:36;;;;;;;7.22;1.13;;;32.30;43.30;;;;;;5044200;28;20112;-81
2022/06/11 13:13:11;;;;;;;12.65;1.95;;;31.80;43.90;;;;;;5051606;28;20029;-79
2022/06/11 13:15:59;;;;;;;6.63;1.00;;;31.70;43.80;;;;;;5049677;28;20033;-82
2022/06/11 13:18:48;;;;;;;4.32;0.98;;;32.20;42.90;;;;;;5048366;28;20053;-85
2022/06/11 13:21:36;;;;;;;6.10;1.17;;;31.40;45.00;;;;;;5050854;28;20045;-81
2022/06/11 13:24:29;;;;;;;7.95;1.55;;;31.50;44.70;;;;;;5050345;28;20017;-84